Time;durP1;ratioP1;P1;durP2;ratioP2;P2;SDS_P1;SDS_P2;PMS_P1;PMS_P2;Temp;Humidity;BMP_temperature;BMP_pressure;BME280_temperature;BME280_humidity;BME280_pressure;Samples;Min_cycle;Max_cycle;Signal;HPM_P1;HPM_P2
2024/02/12 00:00:36;;;;;;;7.35;6.03;;;;;;;7.86;88.47;96479.50;5070679;28;20412;-72
2024/02/12 00:03:06;;;;;;;8.32;5.95;;;;;;;7.88;88.69;96484.59;5070833;28;20016;-73
2024/02/12 00:05:34;;;;;;;8.95;6.32;;;;;;;7.78;88.39;96472.00;5071721;28;20033;-73
2024/02/12 00:08:04;;;;;;;7.18;5.45;;;;;;;7.75;88.46;96466.38;5053347;28;20036;-73
2024/02/12 00:10:30;;;;;;;8.77;6.15;;;;;;;7.83;88.78;96482.72;5051072;28;20447;-73
2024/02/12 00:12:55;;;;;;;10.07;7.03;;;;;;;7.79;88.11;96470.94;5067867;28;20036;-72
2024/02/12 00:15:22;;;;;;;12.00;7.68;;;;;;;7.86;88.34;96484.84;5071624;28;20111;-71
2024/02/12 00:17:48;;;;;;;13.27;7.50;;;;;;;7.91;88.10;96484.06;5071514;28;20536;-72
2024/02/12 00:20:14;;;;;;;9.80;7.18;;;;;;;7.78;88.56;96469.31;5070398;28;20107;-73
2024/02/12 00:22:40;;;;;;;9.07;7.05;;;;;;;7.93;88.56;96488.06;5070030;28;20024;-72
2024/02/12 00:25:07;;;;;;;8.60;6.47;;;;;;;7.92;88.83;96491.81;5070971;28;20047;-73
2024/02/12 00:27:34;;;;;;;6.10;5.50;;;;;;;7.93;88.29;96488.06;5071071;28;20053;-72
2024/02/12 00:30:00;;;;;;;8.32;5.68;;;;;;;7.77;88.10;96465.00;5071457;28;20035;-73
2024/02/12 00:32:26;;;;;;;7.65;6.13;;;;;;;7.94;88.89;96491.53;5057192;28;20021;-73
2024/02/12 00:34:54;;;;;;;6.43;5.45;;;;;;;7.92;88.64;96499.84;5073655;28;20041;-73
2024/02/12 00:37:19;;;;;;;6.47;5.80;;;;;;;7.91;88.62;96500.91;5073994;28;20050;-72
2024/02/12 00:39:44;;;;;;;6.78;5.22;;;;;;;7.87;88.47;96481.09;5073959;28;20028;-74
2024/02/12 00:42:12;;;;;;;5.80;5.20;;;;;;;7.92;88.11;96491.81;5075159;28;20020;-72
2024/02/12 00:44:40;;;;;;;6.90;5.40;;;;;;;7.86;89.00;96484.84;5057196;28;20036;-72
2024/02/12 00:47:07;;;;;;;7.82;5.78;;;;;;;7.91;89.03;96495.56;5066698;28;20474;-73
2024/02/12 00:49:32;;;;;;;6.90;5.60;;;;;;;7.97;88.69;96499.03;5074977;28;20446;-73
2024/02/12 00:51:58;;;;;;;7.75;5.43;;;;;;;7.90;88.72;96493.97;5073555;28;20400;-73
2024/02/12 00:54:26;;;;;;;6.15;4.93;;;;;;;7.98;88.25;96500.66;5073726;28;20033;-72
2024/02/12 00:56:53;;;;;;;7.35;5.50;;;;;;;7.87;88.21;96483.78;5073223;28;20013;-72
2024/02/12 00:59:19;;;;;;;6.25;5.68;;;;;;;7.85;88.65;96485.91;5073688;28;20082;-74
2024/02/12 01:01:44;;;;;;;5.75;5.20;;;;;;;7.87;88.92;96499.03;5075483;28;20017;-74
2024/02/12 01:04:10;;;;;;;8.38;4.78;;;;;;;7.96;88.71;96508.19;5073138;28;20496;-73
2024/02/12 01:06:36;;;;;;;6.10;4.72;;;;;;;7.86;89.04;96492.09;5073150;28;20051;-72
2024/02/12 01:09:05;;;;;;;7.68;5.07;;;;;;;7.90;88.61;96491.28;5072214;28;20033;-73
2024/02/12 01:11:34;;;;;;;8.68;5.25;;;;;;;7.96;88.27;96513.53;5072236;28;20017;-74
2024/02/12 01:14:00;;;;;;;8.90;5.53;;;;;;;7.96;89.30;96508.97;5038991;28;20067;-74
2024/02/12 01:16:27;;;;;;;6.10;4.63;;;;;;;7.97;89.11;96510.56;5071941;28;20040;-74
2024/02/12 01:18:53;;;;;;;5.90;5.30;;;;;;;7.88;88.72;96501.47;5071980;28;20040;-74
2024/02/12 01:21:20;;;;;;;6.78;4.75;;;;;;;7.98;88.95;96520.22;5072051;28;20388;-74
2024/02/12 01:23:45;;;;;;;5.85;5.28;;;;;;;7.98;88.42;96517.53;5071984;28;20058;-73
2024/02/12 01:26:14;;;;;;;7.07;5.43;;;;;;;7.89;88.82;96495.03;5071753;28;20028;-74
2024/02/12 01:28:40;;;;;;;5.93;5.32;;;;;;;8.00;88.74;96510.06;5072819;28;20028;-73
2024/02/12 01:31:10;;;;;;;7.95;5.50;;;;;;;7.98;88.44;96506.81;5073252;28;20028;-72
2024/02/12 01:33:39;;;;;;;7.95;5.40;;;;;;;7.85;88.81;96485.09;5071889;28;20036;-73
2024/02/12 01:36:05;;;;;;;8.52;5.75;;;;;;;8.00;88.99;96510.06;5071691;28;20392;-73
2024/02/12 01:38:32;;;;;;;7.53;6.03;;;;;;;8.01;88.55;96510.81;5072746;28;20363;-73
2024/02/12 01:40:57;;;;;;;8.32;5.65;;;;;;;7.92;89.15;96494.50;5073056;28;20025;-74
2024/02/12 01:43:30;;;;;;;5.68;4.80;;;;;;;7.96;89.10;96508.97;5071784;28;20039;-75
2024/02/12 01:45:57;;;;;;;6.85;5.35;;;;;;;7.90;88.77;96502.00;5055397;28;20178;-74
2024/02/12 01:48:22;;;;;;;6.05;5.43;;;;;;;7.90;88.71;96498.50;5048567;28;20430;-75
2024/02/12 01:50:48;;;;;;;5.97;5.18;;;;;;;7.92;89.05;96502.53;5072055;28;20074;-73
2024/02/12 01:53:14;;;;;;;8.55;5.30;;;;;;;7.96;88.84;96503.59;5065102;28;20027;-74
2024/02/12 01:55:41;;;;;;;7.85;4.65;;;;;;;7.68;88.51;96458.59;5071310;28;20039;-74
2024/02/12 01:58:07;;;;;;;6.43;5.05;;;;;;;8.00;88.46;96515.41;5071744;28;20381;-75
2024/02/12 02:00:32;;;;;;;5.43;4.90;;;;;;;7.96;88.79;96511.63;5073034;28;20036;-73
2024/02/12 02:03:08;;;;;;;5.78;5.28;;;;;;;7.93;89.22;96514.88;5055727;28;20452;-74
2024/02/12 02:05:35;;;;;;;5.47;4.70;;;;;;;7.90;88.90;96504.69;5023300;28;1403408;-74
2024/02/12 02:08:01;;;;;;;5.78;4.72;;;;;;;7.96;88.91;96518.91;5055452;28;20522;-74
2024/02/12 02:10:27;;;;;;;6.38;4.60;;;;;;;7.95;89.11;96517.28;5055905;28;20112;-71
2024/02/12 02:12:53;;;;;;;6.05;4.82;;;;;;;7.95;88.90;96518.09;5071099;28;20016;-72
2024/02/12 02:15:19;;;;;;;5.10;4.57;;;;;;;7.92;89.23;96518.63;5073686;28;20037;-73
2024/02/12 02:17:45;;;;;;;5.03;4.63;;;;;;;7.90;89.63;96517.28;5073619;28;20392;-72
2024/02/12 02:20:12;;;;;;;5.60;4.97;;;;;;;7.92;89.26;96518.63;5073458;28;20412;-71
2024/02/12 02:22:38;;;;;;;6.10;4.97;;;;;;;7.95;88.99;96512.72;5072005;28;20081;-70
2024/02/12 02:25:05;;;;;;;5.43;4.70;;;;;;;7.94;89.32;96510.28;5054069;28;20551;-72
2024/02/12 02:27:31;;;;;;;6.80;5.30;;;;;;;8.01;89.10;96511.63;5072155;28;20027;-72
2024/02/12 02:29:56;;;;;;;6.15;5.10;;;;;;;7.95;89.43;96518.09;5055004;28;20037;-72
2024/02/12 02:32:21;;;;;;;5.20;4.72;;;;;;;7.88;89.24;96500.66;5072760;28;20016;-72
2024/02/12 02:34:47;;;;;;;6.13;5.32;;;;;;;7.98;89.86;96517.53;5072387;28;20037;-73
2024/02/12 02:37:12;;;;;;;6.55;4.45;;;;;;;7.98;88.85;96512.16;5071329;28;20472;-73
2024/02/12 02:39:38;;;;;;;7.40;4.63;;;;;;;7.92;89.71;96513.25;5072640;28;20090;-72
2024/02/12 02:42:03;;;;;;;5.43;4.72;;;;;;;7.89;89.09;96507.66;5072517;28;20538;-72
2024/02/12 02:44:29;;;;;;;5.43;4.45;;;;;;;7.98;89.69;96516.75;5072653;28;20048;-73
2024/02/12 02:46:55;;;;;;;6.32;4.78;;;;;;;7.99;89.02;96510.28;5064834;28;20051;-73
2024/02/12 02:49:21;;;;;;;6.85;5.03;;;;;;;7.96;89.22;96514.31;5072310;28;20044;-73
2024/02/12 02:51:47;;;;;;;5.50;4.57;;;;;;;7.92;89.90;96518.63;5072086;28;20020;-72
2024/02/12 02:54:13;;;;;;;7.45;4.60;;;;;;;7.93;89.66;96520.25;5070659;28;20041;-73
2024/02/12 02:56:39;;;;;;;5.72;4.38;;;;;;;7.95;89.49;96518.09;5070678;28;20107;-74
2024/02/12 02:59:05;;;;;;;8.77;4.88;;;;;;;7.92;90.08;96523.16;5054411;28;20115;-72
2024/02/12 03:01:31;;;;;;;5.15;4.65;;;;;;;7.88;89.61;96520.22;5071344;28;20021;-73
2024/02/12 03:03:57;;;;;;;6.43;4.93;;;;;;;7.87;89.81;96521.28;5071936;28;20032;-73
2024/02/12 03:06:26;;;;;;;5.90;5.15;;;;;;;7.90;89.58;96520.75;5071583;28;20090;-73
2024/02/12 03:08:51;;;;;;;5.97;4.80;;;;;;;7.90;89.19;96518.09;5070617;28;20036;-73
2024/02/12 03:11:25;;;;;;;7.82;5.60;;;;;;;7.90;89.65;96515.41;5070989;28;20036;-73
2024/02/12 03:13:51;;;;;;;5.72;5.03;;;;;;;7.81;90.58;96521.56;5070757;28;20097;-73
2024/02/12 03:16:19;;;;;;;5.03;4.53;;;;;;;7.68;90.62;96504.94;5070582;28;20481;-73
2024/02/12 03:18:48;;;;;;;6.00;4.65;;;;;;;7.74;90.88;96521.84;5071597;28;20079;-73
2024/02/12 03:21:20;;;;;;;5.75;4.97;;;;;;;7.82;90.31;96532.00;5071713;28;20024;-73
2024/02/12 03:23:47;;;;;;;4.95;4.20;;;;;;;7.83;90.56;96530.94;5070600;28;20040;-74
2024/02/12 03:26:13;;;;;;;6.55;5.10;;;;;;;7.84;90.63;96535.22;5070304;28;20099;-74
2024/02/12 03:28:39;;;;;;;10.15;5.90;;;;;;;7.80;90.95;96526.13;5071601;28;20111;-73
2024/02/12 03:31:04;;;;;;;7.22;5.38;;;;;;;7.73;90.70;96514.84;5071618;28;20050;-74
2024/02/12 03:33:31;;;;;;;5.85;5.28;;;;;;;7.76;90.33;96519.69;5071700;28;20090;-73
2024/02/12 03:35:56;;;;;;;7.68;5.82;;;;;;;7.58;90.58;96496.88;5071342;28;20024;-73
2024/02/12 03:38:24;;;;;;;8.02;5.68;;;;;;;7.74;91.65;96537.09;5071598;28;20025;-73
2024/02/12 03:40:56;;;;;;;7.32;5.97;;;;;;;7.71;91.52;96527.72;5053898;28;20025;-73
2024/02/12 03:43:25;;;;;;;6.05;5.50;;;;;;;7.68;91.60;96523.69;5050776;28;20041;-74
2024/02/12 03:45:55;;;;;;;7.15;5.40;;;;;;;7.77;91.09;96540.03;5069340;28;20399;-71
2024/02/12 04:02:12;;;;;;;7.47;6.07;;;;;;;7.71;92.25;96549.16;5071340;28;20476;-72
2024/02/12 04:04:39;;;;;;;7.05;5.38;;;;;;;7.71;92.22;96545.66;5072232;28;20051;-72
2024/02/12 04:07:05;;;;;;;7.55;6.10;;;;;;;7.75;91.77;96547.53;5075213;28;20039;-72
2024/02/12 04:09:32;;;;;;;10.73;7.47;;;;;;;7.73;92.37;96554.22;5054279;28;20024;-72
2024/02/12 04:11:58;;;;;;;7.82;7.10;;;;;;;7.71;91.73;96546.47;5074245;28;20036;-72
2024/02/12 04:14:23;;;;;;;8.10;6.00;;;;;;;7.64;92.07;96543.25;5054581;28;20503;-72
2024/02/12 04:16:51;;;;;;;9.68;7.20;;;;;;;7.75;91.85;96560.94;5074945;28;20039;-72
2024/02/12 04:19:18;;;;;;;9.20;6.70;;;;;;;7.72;92.52;96558.81;5068301;28;20031;-71
2024/02/12 04:21:44;;;;;;;7.28;6.57;;;;;;;7.67;92.29;96564.16;5074439;28;20051;-70
2024/02/12 04:24:09;;;;;;;9.65;6.30;;;;;;;7.69;92.70;96570.06;5075108;28;20484;-70
2024/02/12 04:26:38;;;;;;;8.65;7.03;;;;;;;7.69;92.39;96567.38;5075470;28;20041;-71
2024/02/12 04:29:07;;;;;;;7.25;6.28;;;;;;;7.65;93.06;96564.41;5075196;28;20020;-71
2024/02/12 04:31:35;;;;;;;10.35;7.30;;;;;;;7.73;92.38;96573.81;5075066;28;20033;-71
2024/02/12 04:34:01;;;;;;;8.85;7.28;;;;;;;7.71;92.32;96575.94;5074657;28;20028;-71
2024/02/12 04:36:26;;;;;;;7.07;6.38;;;;;;;7.73;92.68;96573.81;5074079;28;20051;-71
2024/02/12 04:38:51;;;;;;;11.20;7.30;;;;;;;7.71;92.47;96573.25;5075183;28;20067;-71
2024/02/12 04:41:19;;;;;;;8.23;6.57;;;;;;;7.75;93.03;96579.69;5073603;28;20036;-71
2024/02/12 04:43:46;;;;;;;8.85;7.40;;;;;;;7.75;92.24;96571.66;5074598;28;20112;-71
2024/02/12 04:46:11;;;;;;;7.80;6.90;;;;;;;7.75;92.65;96570.88;5071994;28;20138;-72
2024/02/12 04:48:37;;;;;;;9.10;6.97;;;;;;;7.77;92.29;96580.22;5068741;28;20518;-72
2024/02/12 04:51:03;;;;;;;7.25;6.55;;;;;;;7.77;92.51;96585.59;5074507;28;20085;-72
2024/02/12 04:53:28;;;;;;;9.95;6.50;;;;;;;7.72;92.46;96582.94;5073260;28;20074;-72
2024/02/12 04:55:55;;;;;;;8.60;6.68;;;;;;;7.70;92.83;96587.75;5072976;28;20036;-71
2024/02/12 04:58:22;;;;;;;8.23;7.35;;;;;;;7.71;93.39;96589.34;5074866;28;20036;-72
2024/02/12 05:00:47;;;;;;;9.50;7.53;;;;;;;7.67;92.56;96585.59;5074648;28;20499;-73
2024/02/12 05:03:13;;;;;;;9.77;8.02;;;;;;;7.74;93.37;96596.84;5074133;28;20033;-73
2024/02/12 05:05:39;;;;;;;10.48;7.68;;;;;;;7.75;93.29;96592.31;5073967;28;20028;-72
2024/02/12 05:08:04;;;;;;;10.55;7.72;;;;;;;7.68;93.59;96595.22;5072773;28;20522;-72
2024/02/12 05:10:30;;;;;;;9.02;8.10;;;;;;;7.69;93.41;96594.16;5068111;28;20056;-72
2024/02/12 05:12:56;;;;;;;10.25;7.18;;;;;;;7.68;93.06;96587.19;5074117;28;20392;-72
2024/02/12 05:15:22;;;;;;;10.35;6.90;;;;;;;7.62;93.13;96588.25;5073483;28;20032;-72
2024/02/12 05:18:06;;;;;;;11.52;10.27;;;;;;;7.66;93.27;96597.38;5072165;28;20086;-72
2024/02/12 05:23:16;;;;;;;20.35;15.95;;;;;;;7.63;93.72;96593.34;5066281;28;20447;-72
2024/02/12 05:25:43;;;;;;;19.27;14.95;;;;;;;7.70;93.32;96595.78;5072359;28;20036;-72
2024/02/12 05:28:09;;;;;;;12.18;8.40;;;;;;;7.77;93.35;96606.25;5073762;28;20036;-72
2024/02/12 05:30:34;;;;;;;8.55;7.70;;;;;;;7.77;93.36;96593.63;5072126;28;20027;-72
2024/02/12 05:33:00;;;;;;;8.23;7.13;;;;;;;7.83;92.65;96597.94;5073863;28;20041;-72
2024/02/12 05:35:26;;;;;;;8.27;7.07;;;;;;;7.80;93.41;96598.47;5073474;28;20040;-73
2024/02/12 05:37:52;;;;;;;9.57;7.80;;;;;;;7.83;93.45;96605.97;5073366;28;20028;-73
2024/02/12 05:40:20;;;;;;;9.82;8.82;;;;;;;7.82;92.81;96599.00;5072120;28;20071;-73
2024/02/12 05:42:45;;;;;;;12.35;8.55;;;;;;;7.81;93.63;96608.13;5072095;28;20032;-73
2024/02/12 05:45:10;;;;;;;13.43;10.77;;;;;;;7.85;93.13;96609.19;5071925;28;20103;-72
2024/02/12 05:47:36;;;;;;;10.50;9.38;;;;;;;7.86;93.74;96610.00;5060168;28;20048;-71
2024/02/12 05:50:01;;;;;;;16.13;12.13;;;;;;;7.85;92.90;96609.19;5071518;28;20028;-71
2024/02/12 05:52:27;;;;;;;11.98;10.70;;;;;;;7.84;92.89;96612.94;5072060;28;20044;-71
2024/02/12 05:54:52;;;;;;;10.35;9.13;;;;;;;7.85;93.03;96611.88;5070813;28;20024;-71
2024/02/12 05:57:18;;;;;;;12.15;10.48;;;;;;;7.86;93.69;96621.53;5072098;28;20064;-70
2024/02/12 05:59:43;;;;;;;11.40;10.15;;;;;;;7.87;92.98;96623.13;5071066;28;20048;-71
2024/02/12 06:02:08;;;;;;;12.40;11.20;;;;;;;7.89;93.19;96614.84;5072288;28;20046;-71
2024/02/12 06:04:34;;;;;;;13.25;11.38;;;;;;;7.84;93.26;96618.28;5071584;28;20480;-71
2024/02/12 06:06:59;;;;;;;13.00;10.70;;;;;;;7.85;93.23;96638.69;5071627;28;20040;-68
2024/02/12 06:09:25;;;;;;;11.13;10.02;;;;;;;7.87;93.97;96641.88;5072993;28;20028;-71
2024/02/12 06:11:51;;;;;;;12.93;9.75;;;;;;;7.86;94.04;96637.63;5068732;28;20032;-72
2024/02/12 06:14:17;;;;;;;26.75;21.30;;;;;;;7.84;93.06;96631.69;5064812;28;20082;-72
2024/02/12 06:16:42;;;;;;;24.27;21.77;;;;;;;7.82;93.72;96641.88;5071357;28;20123;-72
2024/02/12 06:19:07;;;;;;;12.48;11.13;;;;;;;7.76;93.82;96632.22;5070680;28;20032;-72
2024/02/12 06:21:35;;;;;;;11.50;10.40;;;;;;;7.89;93.72;96650.47;5066931;28;20083;-72
2024/02/12 06:24:04;;;;;;;14.02;12.30;;;;;;;7.89;94.00;96658.50;5063229;28;20033;-72
2024/02/12 06:26:30;;;;;;;11.32;10.07;;;;;;;7.89;93.50;96653.16;5061940;28;20045;-70
2024/02/12 06:28:55;;;;;;;10.30;9.15;;;;;;;7.89;93.58;96658.50;5069594;28;20070;-73
2024/02/12 06:31:21;;;;;;;15.88;13.40;;;;;;;7.93;93.92;96648.88;5072136;28;20498;-72
2024/02/12 06:33:46;;;;;;;13.63;12.13;;;;;;;7.92;93.89;96655.31;5069894;28;20021;-72
2024/02/12 06:36:12;;;;;;;11.70;10.50;;;;;;;7.83;93.99;96643.50;5072377;28;20044;-72
2024/02/12 06:38:38;;;;;;;12.15;10.57;;;;;;;7.89;94.08;96666.53;5069660;28;20059;-72
2024/02/12 06:41:03;;;;;;;12.00;9.57;;;;;;;7.82;94.48;96667.91;5066057;28;20071;-71
2024/02/12 06:43:29;;;;;;;11.80;9.50;;;;;;;7.83;94.02;96680.22;5071301;28;20099;-72
2024/02/12 06:45:54;;;;;;;9.52;8.60;;;;;;;7.86;94.53;96680.50;5071953;28;20045;-72
2024/02/12 06:48:20;;;;;;;9.38;8.45;;;;;;;7.81;94.06;96672.44;5067191;28;20049;-72
2024/02/12 06:50:46;;;;;;;11.18;10.10;;;;;;;7.89;94.43;96688.00;5072142;28;20097;-72
2024/02/12 06:53:12;;;;;;;12.48;10.07;;;;;;;7.90;94.13;96692.28;5072247;28;20306;-72
2024/02/12 06:55:37;;;;;;;10.88;9.80;;;;;;;7.90;94.48;96691.47;5071936;28;20040;-72
2024/02/12 06:58:03;;;;;;;11.60;10.00;;;;;;;7.82;94.42;96684.75;5052974;28;20013;-72
2024/02/12 07:00:28;;;;;;;9.60;8.70;;;;;;;7.93;94.32;96705.19;5071313;28;20036;-72
2024/02/12 07:02:55;;;;;;;10.43;9.43;;;;;;;7.93;94.85;96701.69;5067675;28;20032;-72
2024/02/12 07:05:21;;;;;;;11.43;9.30;;;;;;;8.00;94.12;96713.78;5069672;28;20132;-72
2024/02/12 07:07:46;;;;;;;11.27;10.10;;;;;;;8.06;94.15;96718.06;5061372;28;20108;-72
2024/02/12 07:10:12;;;;;;;13.40;11.30;;;;;;;8.05;93.61;96710.28;5067178;28;20548;-72
2024/02/12 07:12:40;;;;;;;10.82;9.73;;;;;;;8.09;93.77;96712.19;5064950;28;20033;-72
2024/02/12 07:15:07;;;;;;;13.02;9.98;;;;;;;8.00;93.54;96703.06;5056284;28;20063;-72
2024/02/12 07:17:32;;;;;;;16.80;14.95;;;;;;;8.15;93.83;96727.19;5070417;28;20077;-72
2024/02/12 07:19:58;;;;;;;15.25;13.75;;;;;;;8.13;93.41;96729.34;5070453;28;20119;-72
2024/02/12 07:22:23;;;;;;;13.02;11.77;;;;;;;8.12;94.04;96732.31;5070637;28;20384;-73
2024/02/12 07:24:51;;;;;;;13.52;12.18;;;;;;;8.15;93.64;96743.28;5071311;28;20032;-72
2024/02/12 07:27:18;;;;;;;10.73;9.63;;;;;;;8.14;94.29;96741.69;5064476;28;20454;-72
2024/02/12 07:29:48;;;;;;;12.45;11.25;;;;;;;8.19;94.01;96748.94;5070301;28;20039;-73
2024/02/12 07:32:13;;;;;;;18.02;16.13;;;;;;;8.12;93.63;96735.75;5071475;28;20039;-73
2024/02/12 07:34:39;;;;;;;55.85;41.83;;;;;;;8.19;93.47;96755.09;5070047;28;20040;-72
2024/02/12 07:37:05;;;;;;;49.67;34.50;;;;;;;8.21;93.76;96747.56;5070364;28;20710;-70
2024/02/12 07:39:30;;;;;;;78.05;50.60;;;;;;;8.18;94.36;96753.50;5069798;28;20028;-73
2024/02/12 07:41:59;;;;;;;104.93;66.85;;;;;;;8.19;94.07;96755.09;5071431;28;20107;-71
2024/02/12 07:44:25;;;;;;;64.82;44.78;;;;;;;8.10;93.88;96747.81;5071399;28;20029;-73
2024/02/12 07:46:51;;;;;;;90.82;57.85;;;;;;;8.20;94.08;96766.63;5063242;28;20457;-73
2024/02/12 07:49:16;;;;;;;92.93;61.75;;;;;;;8.15;94.74;96754.00;5070075;28;20111;-73
2024/02/12 07:51:41;;;;;;;69.63;47.45;;;;;;;8.17;94.15;96767.97;5071415;28;20024;-73
2024/02/12 07:54:07;;;;;;;59.40;42.08;;;;;;;8.11;94.68;96755.63;5070102;28;20044;-72
2024/02/12 07:56:32;;;;;;;45.63;32.47;;;;;;;8.17;94.48;96767.97;5070156;28;20020;-73
2024/02/12 07:58:58;;;;;;;35.40;27.88;;;;;;;8.23;95.06;96777.66;5071298;28;20492;-73
2024/02/12 08:01:23;;;;;;;43.30;30.77;;;;;;;8.24;94.66;96778.44;5072337;28;20056;-73
2024/02/12 08:03:50;;;;;;;30.17;23.55;;;;;;;8.31;95.04;96784.38;5069872;28;20103;-73
2024/02/12 08:06:15;;;;;;;35.78;27.77;;;;;;;8.38;94.57;96789.53;5065416;28;20050;-73
2024/02/12 08:08:41;;;;;;;18.35;15.88;;;;;;;8.28;94.74;96790.28;5071197;28;20476;-73
2024/02/12 08:11:06;;;;;;;25.23;19.95;;;;;;;8.32;95.01;96786.81;5069826;28;20147;-73
2024/02/12 08:13:32;;;;;;;13.00;11.70;;;;;;;8.35;95.04;96797.00;5071275;28;20035;-73
2024/02/12 08:15:58;;;;;;;7.97;7.18;;;;;;;8.29;95.22;96794.56;5069655;28;20625;-73
2024/02/12 08:18:24;;;;;;;8.32;7.50;;;;;;;8.22;95.01;96802.84;5070022;28;20039;-73
2024/02/12 08:20:49;;;;;;;9.57;8.13;;;;;;;8.25;95.72;96802.31;5071107;28;20091;-73
2024/02/12 08:23:15;;;;;;;8.75;7.65;;;;;;;8.22;95.15;96802.84;5071099;28;20032;-73
2024/02/12 08:25:40;;;;;;;7.22;6.53;;;;;;;8.14;95.33;96795.31;5050186;28;20025;-72
2024/02/12 08:28:07;;;;;;;7.93;7.20;;;;;;;8.27;95.38;96810.94;5066802;28;20037;-73
2024/02/12 08:30:33;;;;;;;8.85;6.75;;;;;;;8.20;94.96;96804.16;5069833;28;20024;-73
2024/02/12 08:32:59;;;;;;;7.45;6.85;;;;;;;8.29;95.68;96808.78;5069675;28;20033;-73
2024/02/12 08:35:24;;;;;;;7.10;6.43;;;;;;;8.29;95.11;96795.38;5050426;28;20057;-73
2024/02/12 08:37:50;;;;;;;6.50;6.00;;;;;;;8.40;94.61;96819.56;5069359;28;20116;-73
2024/02/12 08:40:17;;;;;;;6.43;5.82;;;;;;;8.48;94.73;96829.75;5060692;28;20083;-72
2024/02/12 08:42:45;;;;;;;6.20;5.60;;;;;;;8.51;94.58;96823.88;5070887;28;20033;-71
2024/02/12 08:45:11;;;;;;;6.75;6.13;;;;;;;8.45;95.02;96825.72;5070495;28;20488;-73
2024/02/12 08:47:40;;;;;;;7.07;6.38;;;;;;;8.30;94.96;96807.72;5070543;28;20470;-72
2024/02/12 08:50:06;;;;;;;6.55;6.00;;;;;;;8.42;95.27;96833.50;5070902;28;20499;-72
2024/02/12 08:52:31;;;;;;;8.93;6.72;;;;;;;8.39;94.88;96828.66;5073426;28;20409;-74
2024/02/12 08:54:59;;;;;;;6.30;5.80;;;;;;;8.32;94.86;96835.09;5072884;28;20020;-73
2024/02/12 08:57:26;;;;;;;6.82;5.93;;;;;;;8.33;94.89;96836.69;5074421;28;20411;-73
2024/02/12 08:59:52;;;;;;;6.72;6.13;;;;;;;8.37;95.27;96852.28;5072987;28;20395;-72
2024/02/12 09:02:18;;;;;;;6.80;6.22;;;;;;;8.17;95.28;96843.03;5074375;28;20032;-74
2024/02/12 09:04:43;;;;;;;7.75;6.50;;;;;;;8.35;95.01;96856.00;5073114;28;20026;-71
2024/02/12 09:07:09;;;;;;;7.00;6.50;;;;;;;8.35;95.14;96856.00;5074032;28;20044;-73
2024/02/12 09:09:34;;;;;;;6.75;6.20;;;;;;;8.42;95.16;96865.69;5074066;28;20028;-74
2024/02/12 09:12:00;;;;;;;7.40;6.80;;;;;;;8.30;95.72;96864.06;5074458;28;20065;-73
2024/02/12 09:14:25;;;;;;;8.27;7.57;;;;;;;8.29;95.58;96859.75;5072869;28;20044;-72
2024/02/12 09:16:51;;;;;;;9.68;8.13;;;;;;;8.29;95.55;96857.06;5073615;28;20033;-73
2024/02/12 09:19:16;;;;;;;8.00;7.22;;;;;;;8.42;95.79;96881.78;5073748;28;20016;-73
2024/02/12 09:21:42;;;;;;;7.93;7.15;;;;;;;8.53;95.51;96889.63;5072583;28;20385;-73
2024/02/12 09:24:08;;;;;;;9.00;8.20;;;;;;;8.52;95.55;96885.31;5072535;28;20040;-73
2024/02/12 09:26:34;;;;;;;8.05;7.30;;;;;;;8.68;95.27;96883.50;5072481;28;20032;-73
2024/02/12 09:29:01;;;;;;;9.13;8.10;;;;;;;8.75;95.05;96876.00;5072437;28;20027;-73
2024/02/12 09:31:27;;;;;;;8.23;7.50;;;;;;;8.81;95.09;96885.66;5073734;28;20059;-73
2024/02/12 09:33:53;;;;;;;7.78;7.07;;;;;;;8.90;94.94;96887.56;5072605;28;20412;-73
2024/02/12 09:36:19;;;;;;;7.20;6.60;;;;;;;8.77;94.86;96890.78;5070104;28;20043;-73
2024/02/12 09:38:45;;;;;;;6.80;6.30;;;;;;;8.73;94.65;96888.84;5073481;28;20392;-73
2024/02/12 09:41:14;;;;;;;6.88;6.28;;;;;;;8.80;94.60;96900.97;5070846;28;20481;-73
2024/02/12 09:43:43;;;;;;;7.00;6.38;;;;;;;8.78;94.28;96907.66;5067407;28;20153;-72
2024/02/12 09:46:13;;;;;;;7.32;6.72;;;;;;;8.83;93.98;96895.06;5068064;28;20091;-73
2024/02/12 09:48:39;;;;;;;7.40;6.70;;;;;;;8.76;94.86;96913.31;5067918;28;20127;-74
2024/02/12 09:51:05;;;;;;;6.82;6.07;;;;;;;8.75;94.59;96897.47;5072245;28;20107;-74
2024/02/12 09:53:31;;;;;;;7.35;6.75;;;;;;;8.86;94.13;96893.75;5072114;28;20119;-73
2024/02/12 09:55:56;;;;;;;6.50;6.00;;;;;;;8.77;94.10;96901.50;5036054;28;20028;-74
2024/02/12 09:58:22;;;;;;;6.63;6.00;;;;;;;8.83;94.05;96913.88;5071919;28;20028;-73
2024/02/12 10:00:47;;;;;;;5.95;5.35;;;;;;;8.81;94.26;96917.88;5073206;28;20480;-73
2024/02/12 10:03:13;;;;;;;6.00;5.50;;;;;;;8.76;93.72;96921.34;5050628;28;20034;-73
2024/02/12 10:05:43;;;;;;;5.78;5.32;;;;;;;8.71;93.29;96918.66;5071695;28;20028;-73
2024/02/12 10:08:22;;;;;;;6.75;6.22;;;;;;;8.67;93.17;96924.81;5071656;28;20045;-73
2024/02/12 10:10:48;;;;;;;5.90;5.30;;;;;;;8.55;93.95;96916.19;5072051;28;20039;-73
2024/02/12 10:13:13;;;;;;;6.57;5.97;;;;;;;8.64;94.14;96922.66;5071586;28;20025;-74
2024/02/12 10:15:42;;;;;;;5.93;5.43;;;;;;;8.53;94.12;96931.75;5071476;28;20036;-72
2024/02/12 10:18:10;;;;;;;5.60;5.20;;;;;;;8.47;93.67;96932.78;5072763;28;20016;-73
2024/02/12 10:20:39;;;;;;;5.65;5.07;;;;;;;8.38;93.60;96923.63;5065576;28;20140;-73
2024/02/12 10:23:04;;;;;;;6.40;5.35;;;;;;;8.37;94.24;96943.47;5071478;28;20096;-72
2024/02/12 10:25:29;;;;;;;6.97;5.35;;;;;;;8.37;93.64;96948.84;5071206;28;20123;-72
2024/02/12 10:27:55;;;;;;;7.10;5.60;;;;;;;8.29;94.06;96948.25;5072038;28;20404;-72
2024/02/12 10:30:21;;;;;;;5.68;4.70;;;;;;;8.21;94.31;96935.28;5071347;28;20369;-72
2024/02/12 10:32:49;;;;;;;5.40;4.90;;;;;;;8.38;94.23;96950.47;5072210;28;20028;-72
2024/02/12 10:35:15;;;;;;;5.80;5.20;;;;;;;8.35;93.73;96952.56;5072005;28;20036;-72
2024/02/12 10:37:41;;;;;;;5.65;5.15;;;;;;;8.42;93.96;96951.53;5070476;28;20419;-72
2024/02/12 10:40:12;;;;;;;5.30;4.90;;;;;;;8.48;93.59;96950.50;5071668;28;20028;-72
2024/02/12 10:42:52;;;;;;;5.65;5.15;;;;;;;8.49;94.04;96946.75;5072225;28;20066;-72
2024/02/12 10:45:18;;;;;;;5.97;5.38;;;;;;;8.61;94.07;96952.72;5070934;28;20038;-73
2024/02/12 10:47:45;;;;;;;5.95;5.43;;;;;;;8.64;93.93;96954.84;5071896;28;20476;-73
2024/02/12 10:50:13;;;;;;;6.22;5.72;;;;;;;8.76;93.53;96958.13;5071081;28;20032;-73
2024/02/12 10:52:42;;;;;;;6.53;5.93;;;;;;;8.91;93.36;96944.75;5072141;28;20024;-74
2024/02/12 10:55:09;;;;;;;6.47;5.88;;;;;;;8.94;93.42;96947.72;5070684;28;20036;-73
2024/02/12 10:57:38;;;;;;;5.50;5.10;;;;;;;9.09;92.88;96959.56;5070962;28;20020;-74
2024/02/12 11:00:05;;;;;;;6.70;5.95;;;;;;;9.27;92.69;96949.13;5071041;28;20044;-73
2024/02/12 11:02:44;;;;;;;7.32;6.07;;;;;;;9.35;92.30;96951.31;5070994;28;20028;-73
2024/02/12 11:05:12;;;;;;;6.68;5.95;;;;;;;9.40;92.70;96954.00;5070536;28;20396;-73
2024/02/12 11:07:37;;;;;;;6.38;5.78;;;;;;;9.39;92.27;96956.94;5071988;28;20024;-73
2024/02/12 11:10:05;;;;;;;8.55;6.80;;;;;;;9.28;92.12;96950.75;5070640;28;20040;-73
2024/02/12 11:12:33;;;;;;;6.35;5.13;;;;;;;9.00;91.62;96965.47;5068874;28;20024;-73
2024/02/12 11:15:10;;;;;;;5.45;4.90;;;;;;;8.94;91.92;96969.19;5066127;28;20072;-73
2024/02/12 11:17:35;;;;;;;6.32;5.72;;;;;;;8.98;91.69;96975.63;5037597;28;20029;-72
2024/02/12 11:20:05;;;;;;;5.45;5.05;;;;;;;9.01;91.23;96982.38;5067475;28;20086;-73
2024/02/12 11:22:31;;;;;;;5.53;5.03;;;;;;;8.95;91.27;96975.38;5070651;28;20074;-73
2024/02/12 11:25:01;;;;;;;5.88;5.15;;;;;;;8.91;90.55;96982.34;5070090;28;20059;-73
2024/02/12 11:27:39;;;;;;;5.53;5.03;;;;;;;8.81;90.36;96993.03;5070481;28;20066;-73
2024/02/12 11:30:09;;;;;;;6.28;5.63;;;;;;;8.70;90.51;96980.66;5064825;28;20028;-73
2024/02/12 11:32:35;;;;;;;6.95;5.40;;;;;;;8.77;90.59;97006.19;5070141;28;20039;-73
2024/02/12 11:35:14;;;;;;;5.70;5.20;;;;;;;8.63;89.81;97012.28;5070725;28;20012;-73
2024/02/12 11:37:41;;;;;;;7.50;5.93;;;;;;;8.69;89.21;97011.25;5068337;28;20036;-73
2024/02/12 11:40:12;;;;;;;7.38;6.30;;;;;;;8.74;89.24;97013.94;5066970;28;20033;-73
2024/02/12 11:42:49;;;;;;;5.63;5.13;;;;;;;8.76;88.21;97027.91;5053965;28;20449;-73
2024/02/12 11:45:16;;;;;;;6.18;5.55;;;;;;;8.67;88.24;97018.75;5070011;28;20041;-72
2024/02/12 11:47:42;;;;;;;6.50;5.78;;;;;;;8.65;87.74;97004.78;5071262;28;20028;-73
2024/02/12 11:50:20;;;;;;;6.35;5.75;;;;;;;8.67;87.49;97018.75;5067243;28;20041;-73
2024/02/12 11:52:45;;;;;;;7.55;6.03;;;;;;;8.60;88.04;97002.06;5050645;28;20037;-73